Airfield :
LOGIN :

Register | Disclaimer

   EN    FR    IT 

 










Legend :    VFR   Marginal VFR   IFR   Intensive IFR   Very Intensive IFR
Visi :
Ceiling :
>= 8 km
>= 3000ft
5 to 8 km
1000 to 3000 ft
1500m to 5 km
500 to 1000 ft
800 to 1500m
200 to 500 ft
< 800m
< 200 ft
Symbols :   Thunderstorms  Fog  Heavy snow  Heavy precipitations  Wind > 20 kt
SIGMETs :     Misc.  Thunderstorms  Icing  Turbulence  Mountain Waves  Volcanic Ashes






- Airport Elevation : 52 ft
- IATA code : RNN


EKRN - Bornholm Ronne

CURRENT METAR :
  • 221850Z AUTO 27029G40KT 9999 FEW140/// 06/03 Q1002

EXPIRED METARs :
  • 221820Z AUTO 27031G43KT 9999 FEW190/// 06/02 Q1002
  • 221750Z AUTO 27031G42KT 9999 FEW042/// BKN084/// 07/02 Q1002
  • 221720Z AUTO 26030G42KT 9999 SCT033/// SCT100/// BKN200/// 07/05 Q1001
  • 221650Z AUTO 25030G40KT 9999 FEW038/// BKN200/// 07/05 Q1000
  • 221620Z AUTO 25027G39KT 9999 FEW011/// BKN100/// BKN210/// 07/06 Q1000

TAF TAF EKRN
Valid from the 22 at 18:00 until the 22 at 23:00 UTC


221722Z 2218/2223 25025KT 9999 SCT025
TEMPO 2218/2223 26032G43KT SHRA SCT020CB



MET'MAP, your aeronautical weather chart ! - Copyright ORBIFLY December 2007 - Disclaimer

ORBIFLY MET'MAP TEAM :

Programming & Development : Alexandra Zaïnal
Concept & original design : Baudouin d'Aumeries
Assistance for programming : Marc-Olivier Méhu
Technical & hardware support : Manuel Goepfert

Contact : metmap@orbifly.com




SOURCES & CREDITS :

   NOAA